Time,TemperatureF,DewpointF,PressureIn,WindDirection,WindDirectionDegrees,WindSpeedMPH,WindSpeedGustMPH,Humidity,HourlyPrecipIn,Conditions,Clouds,dailyrainin,SoftwareType,DateUTC
2015-04-27 00:03:00,47.3,37.3,30.01,North,356,1.0,2.0,68,0.00,,,0.00,Wunderground v.1.15,2015-04-27 05:03:00,
2015-04-27 00:08:00,47.1,37.4,30.01,NW,325,1.0,2.0,69,0.00,,,0.00,Wunderground v.1.15,2015-04-27 05:08:00,
2015-04-27 00:13:00,46.8,37.2,30.01,North,1,0.0,1.0,69,0.00,,,0.00,Wunderground v.1.15,2015-04-27 05:13:00,
2015-04-27 00:18:00,46.7,37.1,30.01,NNE,32,0.0,2.0,69,0.00,,,0.00,Wunderground v.1.15,2015-04-27 05:18:00,
2015-04-27 00:23:00,46.6,37.0,30.01,NNE,15,0.0,0.0,69,0.00,,,0.00,Wunderground v.1.15,2015-04-27 05:23:00,
2015-04-27 00:28:00,46.3,37.0,30.00,NNE,29,0.0,0.0,70,0.00,,,0.00,Wunderground v.1.15,2015-04-27 05:28:00,
2015-04-27 00:33:00,45.9,37.0,30.00,NE,53,0.0,0.0,71,0.00,,,0.00,Wunderground v.1.15,2015-04-27 05:33:00,
2015-04-27 00:39:00,45.6,36.7,30.00,NE,43,0.0,1.0,71,0.00,,,0.00,Wunderground v.1.15,2015-04-27 05:39:00,
2015-04-27 00:44:00,45.2,36.7,30.00,NE,42,0.0,0.0,72,0.00,,,0.00,Wunderground v.1.15,2015-04-27 05:44:00,
2015-04-27 00:50:00,45.0,36.5,30.00,NE,39,0.0,0.0,72,0.00,,,0.00,Wunderground v.1.15,2015-04-27 05:50:00,
2015-04-27 00:55:00,44.9,36.4,30.00,NNE,26,0.0,0.0,72,0.00,,,0.00,Wunderground v.1.15,2015-04-27 05:55:00,
2015-04-27 01:00:00,44.7,36.2,30.00,NW,323,0.0,0.0,72,0.00,,,0.00,Wunderground v.1.15,2015-04-27 06:00:00,
2015-04-27 01:06:00,44.5,36.4,30.00,NW,323,0.0,0.0,73,0.00,,,0.00,Wunderground v.1.15,2015-04-27 06:06:00,
2015-04-27 01:12:00,44.2,36.1,30.00,NW,323,0.0,0.0,73,0.00,,,0.00,Wunderground v.1.15,2015-04-27 06:12:00,
2015-04-27 01:17:00,43.9,36.1,30.00,North,349,0.0,1.0,74,0.00,,,0.00,Wunderground v.1.15,2015-04-27 06:17:00,
2015-04-27 01:22:00,43.8,36.0,30.00,NNW,342,0.0,1.0,74,0.00,,,0.00,Wunderground v.1.15,2015-04-27 06:22:00,
2015-04-27 01:27:00,43.9,36.1,30.00,NNW,329,0.0,1.0,74,0.00,,,0.00,Wunderground v.1.15,2015-04-27 06:27:00,
2015-04-27 01:33:00,43.7,36.0,30.00,NNW,330,0.0,0.0,74,0.00,,,0.00,Wunderground v.1.15,2015-04-27 06:33:00,
2015-04-27 01:38:00,43.5,36.1,30.00,NNW,330,0.0,0.0,75,0.00,,,0.00,Wunderground v.1.15,2015-04-27 06:38:00,
2015-04-27 01:43:00,43.0,36.0,30.00,NNW,330,0.0,0.0,76,0.00,,,0.00,Wunderground v.1.15,2015-04-27 06:43:00,
2015-04-27 01:48:00,42.6,35.9,29.99,NNW,330,0.0,0.0,77,0.00,,,0.00,Wunderground v.1.15,2015-04-27 06:48:00,
2015-04-27 01:54:00,41.9,35.9,29.99,NNW,330,0.0,0.0,79,0.00,,,0.00,Wunderground v.1.15,2015-04-27 06:54:00,
2015-04-27 02:00:00,41.4,35.7,29.99,NNW,329,0.0,0.0,80,0.00,,,0.00,Wunderground v.1.15,2015-04-27 07:00:00,
2015-04-27 02:06:00,41.0,35.9,29.99,NW,316,0.0,0.0,82,0.00,,,0.00,Wunderground v.1.15,2015-04-27 07:06:00,
2015-04-27 02:11:00,40.7,35.9,29.99,NW,316,0.0,1.0,83,0.00,,,0.00,Wunderground v.1.15,2015-04-27 07:11:00,
2015-04-27 02:16:00,40.5,35.7,29.99,NW,316,0.0,1.0,83,0.00,,,0.00,Wunderground v.1.15,2015-04-27 07:16:00,
2015-04-27 02:21:00,40.5,36.0,30.00,NW,315,0.0,0.0,84,0.00,,,0.00,Wunderground v.1.15,2015-04-27 07:21:00,
2015-04-27 02:27:00,40.5,35.7,30.00,NW,310,0.0,0.0,83,0.00,,,0.00,Wunderground v.1.15,2015-04-27 07:27:00,
2015-04-27 02:32:00,40.5,35.7,30.00,NW,312,0.0,0.0,83,0.00,,,0.00,Wunderground v.1.15,2015-04-27 07:32:00,
2015-04-27 02:37:00,40.4,35.6,30.00,NW,312,0.0,0.0,83,0.00,,,0.00,Wunderground v.1.15,2015-04-27 07:37:00,
2015-04-27 02:42:00,40.4,35.6,30.00,NW,310,0.0,0.0,83,0.00,,,0.00,Wunderground v.1.15,2015-04-27 07:42:00,
2015-04-27 02:47:00,40.2,35.1,29.99,NW,310,0.0,0.0,82,0.00,,,0.00,Wunderground v.1.15,2015-04-27 07:47:00,
2015-04-27 02:52:00,40.0,34.9,30.00,NW,310,0.0,0.0,82,0.00,,,0.00,Wunderground v.1.15,2015-04-27 07:52:00,
2015-04-27 02:58:00,39.7,34.7,30.00,NW,310,0.0,0.0,82,0.00,,,0.00,Wunderground v.1.15,2015-04-27 07:58:00,
2015-04-27 03:03:00,39.5,34.8,29.99,NW,310,0.0,0.0,83,0.00,,,0.00,Wunderground v.1.15,2015-04-27 08:03:00,
2015-04-27 03:09:00,39.6,35.2,30.00,NW,311,0.0,0.0,84,0.00,,,0.00,Wunderground v.1.15,2015-04-27 08:09:00,
2015-04-27 03:14:00,39.4,35.0,30.00,NW,311,0.0,0.0,84,0.00,,,0.00,Wunderground v.1.15,2015-04-27 08:14:00,
2015-04-27 03:19:00,39.1,34.7,30.00,NW,311,0.0,0.0,84,0.00,,,0.00,Wunderground v.1.15,2015-04-27 08:19:00,
2015-04-27 03:24:00,39.1,35.0,30.00,NW,309,0.0,0.0,85,0.00,,,0.00,Wunderground v.1.15,2015-04-27 08:24:00,
2015-04-27 03:29:00,39.2,34.8,30.00,NW,309,0.0,0.0,84,0.00,,,0.00,Wunderground v.1.15,2015-04-27 08:29:00,
2015-04-27 03:34:00,39.3,34.9,30.00,NW,309,0.0,0.0,84,0.00,,,0.00,Wunderground v.1.15,2015-04-27 08:34:00,
2015-04-27 03:39:00,39.4,35.0,30.00,NW,309,0.0,0.0,84,0.00,,,0.00,Wunderground v.1.15,2015-04-27 08:39:00,
2015-04-27 03:45:00,39.1,34.7,30.00,NW,309,0.0,0.0,84,0.00,,,0.00,Wunderground v.1.15,2015-04-27 08:45:00,
2015-04-27 03:50:00,38.7,34.3,30.00,NW,309,0.0,0.0,84,0.00,,,0.00,Wunderground v.1.15,2015-04-27 08:50:00,
2015-04-27 03:55:00,38.5,34.4,30.01,NW,309,0.0,0.0,85,0.00,,,0.00,Wunderground v.1.15,2015-04-27 08:55:00,
2015-04-27 04:00:00,38.5,34.7,30.01,WNW,297,0.0,0.0,86,0.00,,,0.00,Wunderground v.1.15,2015-04-27 09:00:00,
2015-04-27 04:06:00,38.8,35.0,30.01,WNW,284,0.0,0.0,86,0.00,,,0.00,Wunderground v.1.15,2015-04-27 09:06:00,
2015-04-27 04:11:00,38.8,34.7,30.01,WNW,284,0.0,0.0,85,0.00,,,0.00,Wunderground v.1.15,2015-04-27 09:11:00,
2015-04-27 04:16:00,38.4,34.6,30.01,WNW,284,0.0,0.0,86,0.00,,,0.00,Wunderground v.1.15,2015-04-27 09:16:00,
2015-04-27 04:21:00,38.0,34.2,30.01,WNW,285,0.0,0.0,86,0.00,,,0.00,Wunderground v.1.15,2015-04-27 09:21:00,
2015-04-27 04:26:00,37.7,34.2,30.00,WNW,291,0.0,0.0,87,0.00,,,0.00,Wunderground v.1.15,2015-04-27 09:26:00,
2015-04-27 04:31:00,37.9,34.4,30.01,WNW,295,0.0,1.0,87,0.00,,,0.00,Wunderground v.1.15,2015-04-27 09:31:00,
2015-04-27 04:36:00,38.1,34.6,30.00,WNW,297,0.0,1.0,87,0.00,,,0.00,Wunderground v.1.15,2015-04-27 09:36:00,
2015-04-27 04:41:00,38.4,34.6,30.00,WNW,297,0.0,1.0,86,0.00,,,0.00,Wunderground v.1.15,2015-04-27 09:41:00,
2015-04-27 04:46:00,38.6,34.8,30.00,NW,304,1.0,1.0,86,0.00,,,0.00,Wunderground v.1.15,2015-04-27 09:46:00,
2015-04-27 04:51:00,38.6,34.5,30.00,NW,316,1.0,1.0,85,0.00,,,0.00,Wunderground v.1.15,2015-04-27 09:51:00,
2015-04-27 04:56:00,38.7,34.6,30.00,North,356,0.0,1.0,85,0.00,,,0.00,Wunderground v.1.15,2015-04-27 09:56:00,
2015-04-27 05:02:00,39.3,34.9,30.00,NNW,335,0.0,2.0,84,0.00,,,0.00,Wunderground v.1.15,2015-04-27 10:02:00,
2015-04-27 05:07:00,39.8,34.8,30.00,NW,316,1.0,3.0,82,0.00,,,0.00,Wunderground v.1.15,2015-04-27 10:07:00,
2015-04-27 05:12:00,40.0,34.6,30.00,North,354,2.0,2.0,81,0.00,,,0.00,Wunderground v.1.15,2015-04-27 10:12:00,
2015-04-27 05:17:00,40.1,34.4,30.00,North,358,1.0,2.0,80,0.00,,,0.00,Wunderground v.1.15,2015-04-27 10:17:00,
2015-04-27 05:22:00,40.1,34.4,30.00,North,9,1.0,1.0,80,0.00,,,0.00,Wunderground v.1.15,2015-04-27 10:22:00,
2015-04-27 05:27:00,40.0,34.3,30.01,North,360,0.0,3.0,80,0.00,,,0.00,Wunderground v.1.15,2015-04-27 10:27:00,
2015-04-27 05:32:00,40.0,34.3,30.01,NNE,15,0.0,0.0,80,0.00,,,0.00,Wunderground v.1.15,2015-04-27 10:32:00,
2015-04-27 05:37:00,40.0,34.0,30.02,North,11,0.0,0.0,79,0.00,,,0.00,Wunderground v.1.15,2015-04-27 10:37:00,
2015-04-27 05:43:00,40.0,34.0,30.02,NNW,340,0.0,2.0,79,0.00,,,0.00,Wunderground v.1.15,2015-04-27 10:43:00,
2015-04-27 05:48:00,40.1,34.1,30.03,NW,323,1.0,3.0,79,0.00,,,0.00,Wunderground v.1.15,2015-04-27 10:48:00,
2015-04-27 05:54:00,39.7,34.0,30.03,NW,325,0.0,1.0,80,0.00,,,0.00,Wunderground v.1.15,2015-04-27 10:54:00,
2015-04-27 05:59:00,39.3,33.6,30.03,NNW,329,0.0,1.0,80,0.00,,,0.00,Wunderground v.1.15,2015-04-27 10:59:00,
2015-04-27 06:04:00,39.3,34.0,30.03,NNW,335,0.0,1.0,81,0.00,,,0.00,Wunderground v.1.15,2015-04-27 11:04:00,
2015-04-27 06:09:00,39.5,33.8,30.03,North,356,0.0,1.0,80,0.00,,,0.00,Wunderground v.1.15,2015-04-27 11:09:00,
2015-04-27 06:14:00,39.9,34.2,30.03,NE,43,0.0,0.0,80,0.00,,,0.00,Wunderground v.1.15,2015-04-27 11:14:00,
2015-04-27 06:19:00,40.3,34.3,30.03,NNE,25,1.0,2.0,79,0.00,,,0.00,Wunderground v.1.15,2015-04-27 11:19:00,
2015-04-27 06:25:00,41.0,34.7,30.03,North,9,1.0,2.0,78,0.00,,,0.00,Wunderground v.1.15,2015-04-27 11:25:00,
2015-04-27 06:30:00,41.7,35.0,30.03,NNW,333,1.0,3.0,77,0.00,,,0.00,Wunderground v.1.15,2015-04-27 11:30:00,
2015-04-27 06:35:00,42.2,35.2,30.04,North,349,2.0,3.0,76,0.00,,,0.00,Wunderground v.1.15,2015-04-27 11:35:00,
2015-04-27 06:40:00,42.6,35.2,30.04,NNE,15,3.0,4.0,75,0.00,,,0.00,Wunderground v.1.15,2015-04-27 11:40:00,
2015-04-27 06:45:00,42.9,35.2,30.04,NNW,345,3.0,6.0,74,0.00,,,0.00,Wunderground v.1.15,2015-04-27 11:45:00,
2015-04-27 06:50:00,43.3,35.6,30.04,NNW,339,3.0,3.0,74,0.00,,,0.00,Wunderground v.1.15,2015-04-27 11:50:00,